Airfield :
LOGIN :

Register | Disclaimer

   EN    FR    IT 

 










Legend :    VFR   Marginal VFR   IFR   Intensive IFR   Very Intensive IFR
Visi :
Ceiling :
>= 8 km
>= 3000ft
5 to 8 km
1000 to 3000 ft
1500m to 5 km
500 to 1000 ft
800 to 1500m
200 to 500 ft
< 800m
< 200 ft
Symbols :   Thunderstorms  Fog  Heavy snow  Heavy precipitations  Wind > 20 kt
SIGMETs :     Misc.  Thunderstorms  Icing  Turbulence  Mountain Waves  Volcanic Ashes






- Airport Elevation : 1830 ft


EBLB - Butgenbach Elsenborn

EXPIRED METARs :
  • 290925Z AUTO 20005KT 9999 OVC005/// 02/01 Q1012 YLO
  • 290855Z AUTO 20005KT 7000 BKN004/// 02/01 Q1012 YLO
  • 290843Z AUTO 19006KT 8000 BKN003/// 02/01 Q1012 YLO
  • 290825Z AUTO 20007KT 6000 BKN002/// 01/01 Q1012 AMB
  • 290755Z AUTO 20004KT 1900 BR OVC002/// 01/01 Q1013 AMB

Expired Forecast.



MET'MAP, your aeronautical weather chart ! - Copyright ORBIFLY December 2007 - Disclaimer

ORBIFLY MET'MAP TEAM :

Programming & Development : Alexandra Zaïnal
Original concept : Baudouin d'Aumeries
Technical & hardware support : Manuel Goepfert
Assistance : Marc-Olivier Méhu




SOURCES & CREDITS :

   NOAA